Flight Track Log - Related Links

Times and Time Zones

All times are in EDT time to prevent confusion due to time zone crossing. See the N6064R flight status page for this flight to view local times or setup timezone preferences in your user account.

Time Position Orientation Groundspeed Altitude Reporting Facility
EDT Latitude Longitude Course Direction KTS MPH feet Rate Location/Type
Thu 05:30:47 PM 40.0769 -83.0794 265° West 83 96 1,000  Level Indianapolis Center
Thu 05:31:30 PM 40.0756 -83.0983 265° West 74 85 1,400 552 Climbing Indianapolis Center
Thu 05:32:14 PM 40.0739 -83.1144 262° West 69 79 1,800 590 Climbing Indianapolis Center
Thu 05:32:31 PM 40.0717 -83.1250 255° West 68 78 2,000 581 Climbing Indianapolis Center
Thu 05:33:16 PM 40.0686 -83.1381 253° West 68 78 2,400 590 Climbing Indianapolis Center
Thu 05:33:32 PM 40.0581 -83.1372 177° South 80 92 2,600 484 Climbing Indianapolis Center
Thu 05:34:18 PM 40.0444 -83.1372 180° South 79 91 2,900 446 Climbing Indianapolis Center
Thu 05:35:33 PM 40.0142 -83.1375 180° South 87 100 3,500 387 Climbing Indianapolis Center
Thu 05:36:22 PM 39.9986 -83.1333 168° South 82 94 3,700 327 Climbing Indianapolis Center
Thu 05:37:23 PM 39.9686 -83.1322 178° South 92 106 4,100 393 Climbing Indianapolis Center
Thu 05:38:24 PM 39.9533 -83.1086 130° Southeast 103 119 4,500 393 Climbing Indianapolis Center
Thu 05:39:25 PM 39.9414 -83.0692 112° Southeast 110 127 4,900 344 Climbing Indianapolis Center
Thu 05:40:26 PM 39.9311 -83.0353 112° Southeast 104 120 5,200 344 Climbing Indianapolis Center
Thu 05:41:27 PM 39.9211 -82.9989 110° East 106 122 5,600 347 Climbing Indianapolis Center
Thu 05:42:27 PM 39.9108 -82.9650 112° Southeast 104 120 5,900 279 Climbing Indianapolis Center
Thu 05:43:36 PM 39.9011 -82.9258 108° East 104 120 6,200 328 Climbing Indianapolis Center
Thu 05:44:35 PM 39.8892 -82.8836 110° East 114 131 6,600 400 Climbing Indianapolis Center
Thu 05:45:36 PM 39.8769 -82.8469 113° Southeast 115 132 7,000 198 Climbing Indianapolis Center
Thu 05:46:36 PM 39.8669 -82.8078 108° East 111 128 7,000  Level Indianapolis Center
Thu 05:47:45 PM 39.8536 -82.7617 111° Southeast 121 139 7,000  Level Indianapolis Center
Thu 05:48:44 PM 39.8394 -82.7178 113° Southeast 133 153 7,000  Level Indianapolis Center
Thu 05:49:45 PM 39.8256 -82.6756 113° Southeast 129 148 7,000  Level Indianapolis Center
Thu 05:50:46 PM 39.8142 -82.6283 107° East 134 154 7,000  Level Indianapolis Center
Thu 05:51:47 PM 39.7983 -82.5803 113° Southeast 134 154 7,000  Level Indianapolis Center
Thu 05:52:55 PM 39.7853 -82.5286 108° East 133 153 7,000 -46 Level Indianapolis Center
Thu 05:53:57 PM 39.7719 -82.4842 111° Southeast 131 151 6,900 -48 Descending Indianapolis Center
Thu 05:54:59 PM 39.7594 -82.4397 110° East 130 150 6,900  Level Indianapolis Center
Thu 05:56:01 PM 39.7464 -82.3956 111° Southeast 130 150 6,900  Level Indianapolis Center
Thu 05:57:03 PM 39.7325 -82.3492 111° Southeast 135 155 6,900  Level Indianapolis Center
Thu 05:58:05 PM 39.7192 -82.3022 110° East 137 158 6,900  Level Indianapolis Center
Thu 05:59:07 PM 39.7053 -82.2558 111° Southeast 137 158 6,900 -48 Level Indianapolis Center
Thu 06:00:09 PM 39.6892 -82.2014 111° Southeast 137 158 6,800  Descending Indianapolis Center
Thu 06:01:11 PM 39.6758 -82.1558 111° Southeast 135 155 6,900 97 Climbing Indianapolis Center
Thu 06:02:13 PM 39.6633 -82.1136 111° Southeast 137 158 7,000 48 Climbing Indianapolis Center
Thu 06:03:15 PM 39.6500 -82.0672 110° East 137 158 7,000  Level Indianapolis Center
Thu 06:04:17 PM 39.6344 -82.0158 111° Southeast 128 147 7,000  Level Indianapolis Center
Thu 06:05:19 PM 39.6208 -81.9706 111° Southeast 134 154 7,000  Level Indianapolis Center
Thu 06:06:22 PM 39.6072 -81.9275 112° Southeast 130 150 7,000  Level Indianapolis Center
Thu 06:07:24 PM 39.5936 -81.8789 110° East 139 160 7,000  Level Indianapolis Center
Thu 06:08:26 PM 39.5794 -81.8331 112° Southeast 138 159 7,000  Level Indianapolis Center
Thu 06:09:28 PM 39.5667 -81.7878 110° East 135 155 7,000  Level Indianapolis Center
Thu 06:10:30 PM 39.5506 -81.7364 112° Southeast 129 148 7,000  Level Indianapolis Center
Thu 06:11:32 PM 39.5375 -81.6908 110° East 132 152 7,000  Level Indianapolis Center
Thu 06:12:34 PM 39.5239 -81.6478 112° Southeast 130 150 7,000  Level Indianapolis Center
Thu 06:13:36 PM 39.5103 -81.6028 111° Southeast 133 153 7,000  Level Indianapolis Center
Thu 06:14:38 PM 39.4969 -81.5572 111° Southeast 135 155 7,000  Level Indianapolis Center
Thu 06:15:40 PM 39.4833 -81.5122 111° Southeast 134 154 7,000  Level Indianapolis Center
Thu 06:16:42 PM 39.4686 -81.4675 113° Southeast 134 154 7,000  Level Indianapolis Center
Thu 06:17:44 PM 39.4519 -81.4131 112° Southeast 135 155 7,000  Level Indianapolis Center
Thu 06:18:46 PM 39.4386 -81.3678 111° Southeast 135 155 7,000  Level Indianapolis Center
Thu 06:19:48 PM 39.4139 -81.3328 132° Southeast 132 152 7,000  Level Indianapolis Center
Thu 06:20:50 PM 39.3900 -81.2972 131° Southeast 131 151 7,000  Level Indianapolis Center
Thu 06:21:52 PM 39.3678 -81.2633 130° Southeast 125 144 7,000  Level Indianapolis Center
Thu 06:22:54 PM 39.3444 -81.2278 130° Southeast 128 147 7,000  Level Indianapolis Center
Thu 06:23:56 PM 39.3203 -81.1903 130° Southeast 132 152 7,000  Level Indianapolis Center
Thu 06:24:59 PM 39.2922 -81.1475 130° Southeast 131 151 7,000  Level Indianapolis Center
Thu 06:26:01 PM 39.2678 -81.1117 131° Southeast 132 152 7,000  Level Indianapolis Center
Thu 06:27:03 PM 39.2447 -81.0756 129° Southeast 132 152 7,000  Level Indianapolis Center
Thu 06:28:05 PM 39.2200 -81.0386 131° Southeast 133 153 7,000  Level Indianapolis Center
Thu 06:29:07 PM 39.1947 -81.0019 132° Southeast 134 154 7,000  Level Indianapolis Center
Thu 06:30:09 PM 39.1706 -80.9644 130° Southeast 135 155 7,000  Level Indianapolis Center
Thu 06:31:11 PM 39.1417 -80.9203 130° Southeast 135 155 7,000  Level Indianapolis Center
Thu 06:32:13 PM 39.1172 -80.8847 132° Southeast 134 154 7,000  Level Indianapolis Center
Thu 06:33:15 PM 39.0933 -80.8486 130° Southeast 133 153 7,000  Level Indianapolis Center
Thu 06:34:17 PM 39.0697 -80.8108 129° Southeast 134 154 7,000  Level Indianapolis Center
Thu 06:35:19 PM 39.0439 -80.7744 132° Southeast 135 155 7,000  Level Indianapolis Center
Thu 06:36:21 PM 39.0197 -80.7378 130° Southeast 135 155 7,000  Level Indianapolis Center
Thu 06:37:23 PM 38.9953 -80.7006 130° Southeast 135 155 7,000  Level Indianapolis Center
Thu 06:38:25 PM 38.9656 -80.6567 131° Southeast 136 157 7,000  Level Indianapolis Center
Thu 06:39:27 PM 38.9406 -80.6200 131° Southeast 135 155 7,000  Level Indianapolis Center
Thu 06:40:29 PM 38.9164 -80.5822 129° Southeast 136 157 7,000  Level Indianapolis Center
Thu 06:41:31 PM 38.8922 -80.5464 131° Southeast 135 155 7,000  Level Indianapolis Center
Thu 06:43:00 PM 38.8552 -80.4932 132° Southeast  Level FlightAware Approximate
Thu 06:48:41 PM 38.7172 -80.2961 130° Southeast 134 154 7,000  Level Washington Center
Thu 06:49:42 PM 38.6914 -80.2597 132° Southeast 127 146 7,000  Level Washington Center
Thu 06:50:00 PM 38.6802 -80.2430 132° Southeast  Level FlightAware Approximate
Thu 06:50:42 PM 38.6658 -80.2208 130° Southeast 127 146 7,000  Level Washington Center
Thu 06:51:00 PM 38.6552 -80.2074 132° Southeast  Level FlightAware Approximate
Thu 06:51:43 PM 38.6422 -80.1822 128° Southeast 127 146 7,000  Level Washington Center
Thu 06:52:00 PM 38.6308 -80.1710 130° Southeast  Level FlightAware Approximate
Thu 06:52:41 PM 38.6164 -80.1489 135° Southeast 127 146 7,000  Level Washington Center
Thu 06:53:00 PM 38.6065 -80.1345 130° Southeast  Level FlightAware Approximate
Thu 06:53:42 PM 38.5947 -80.1156 130° Southeast 127 146 7,000  Level Washington Center
Thu 06:54:00 PM 38.5822 -80.0980 130° Southeast  Level FlightAware Approximate
Thu 06:54:42 PM 38.5817 -80.0750 112° Southeast 133 153 7,000  Level Washington Center
Thu 06:55:40 PM 38.5814 -80.0272 90° East 122 140 7,000  Level Washington Center
Thu 06:56:41 PM 38.5831 -79.9794 87° East 122 140 7,000  Level Washington Center
Thu 06:57:42 PM 38.5786 -79.9286 96° East 134 154 7,000  Level Washington Center
Thu 06:58:43 PM 38.5506 -79.8978 139° Southeast 123 142 7,000  Level Washington Center
Thu 06:59:41 PM 38.5225 -79.8669 139° Southeast 128 147 7,000 50 Level Washington Center
Thu 07:00:42 PM 38.4967 -79.8336 135° Southeast 133 153 7,100 50 Climbing Washington Center
Thu 07:01:41 PM 38.4750 -79.7981 128° Southeast 133 153 7,100  Level Washington Center
Thu 07:02:41 PM 38.4578 -79.7544 117° Southeast 138 159 7,100  Level Washington Center
Thu 07:03:41 PM 38.4342 -79.7108 125° Southeast 138 159 7,100  Level Washington Center
Thu 07:04:42 PM 38.4167 -79.6700 119° Southeast 138 159 7,100  Level Washington Center
Thu 07:05:42 PM 38.3956 -79.6211 119° Southeast 138 159 7,100  Level Washington Center
Thu 07:06:43 PM 38.3758 -79.5831 123° Southeast 138 159 7,100 -50 Level Washington Center
Thu 07:07:43 PM 38.3544 -79.5394 122° Southeast 138 159 7,000 -51 Descending Washington Center
Thu 07:08:41 PM 38.3350 -79.4989 121° Southeast 138 159 7,000  Level Washington Center
Thu 07:09:42 PM 38.3194 -79.4608 118° Southeast 138 159 7,000  Level Washington Center
Thu 07:10:43 PM 38.3000 -79.4203 121° Southeast 138 159 7,000  Level Washington Center
Thu 07:11:41 PM 38.2803 -79.3822 123° Southeast 138 159 7,000  Level Washington Center
Thu 07:12:43 PM 38.2628 -79.3442 120° Southeast 133 153 7,000  Level Washington Center
Thu 07:13:41 PM 38.2433 -79.2983 118° Southeast 133 153 7,000  Level Washington Center
Thu 07:14:42 PM 38.2217 -79.2575 124° Southeast 133 153 7,000 49 Level Washington Center
Thu 07:15:43 PM 38.2039 -79.2197 121° Southeast 133 153 7,100 50 Climbing Washington Center
Thu 07:16:41 PM 38.1864 -79.1792 119° Southeast 138 159 7,100 -50 Level Washington Center
Thu 07:17:42 PM 38.1689 -79.1389 119° Southeast 138 159 7,000 -50 Descending Washington Center
Thu 07:18:42 PM 38.1492 -79.1008 123° Southeast 133 153 7,000  Level Washington Center
Thu 07:19:43 PM 38.1294 -79.0631 124° Southeast 133 153 7,000  Level Washington Center
Thu 07:20:41 PM 38.1078 -79.0144 120° Southeast 133 153 7,000  Level Washington Center
Thu 07:21:42 PM 38.0900 -78.9767 121° Southeast 133 153 7,000  Level Washington Center
Thu 07:22:43 PM 38.0683 -78.9361 124° Southeast 133 153 7,000 -32 Level Washington Center
Thu 07:24:48 PM 38.0333 -78.8500 117° Southeast 132 152 6,900  Descending Potomac TRACON
Thu 07:25:48 PM 38.0000 -78.8000 130° Southeast 137 158 7,000 53 Climbing Potomac TRACON
Thu 07:26:42 PM 37.9833 -78.7667 122° Southeast 134 154 7,000  Level Potomac TRACON
Thu 07:27:42 PM 37.9667 -78.7333 122° Southeast 133 153 7,000  Level Potomac TRACON
Thu 07:28:36 PM 37.9500 -78.7000 122° Southeast 132 152 7,000  Level Potomac TRACON
Thu 07:29:42 PM 37.9333 -78.6500 113° Southeast 133 153 7,000  Level Potomac TRACON
Thu 07:30:48 PM 37.9167 -78.6000 113° Southeast 136 157 7,000  Level Potomac TRACON
Thu 07:31:37 PM 37.9000 -78.5833 142° Southeast 129 148 7,000  Level Potomac TRACON
Thu 07:32:43 PM 37.8833 -78.5333 113° Southeast 137 158 7,000  Level Potomac TRACON
Thu 07:33:37 PM 37.8500 -78.5000 142° Southeast 139 160 7,000  Level Potomac TRACON
Thu 07:34:37 PM 37.8333 -78.4500 113° Southeast 143 165 7,000  Level Potomac TRACON
Thu 07:35:37 PM 37.8167 -78.4167 122° Southeast 143 165 7,000  Level Potomac TRACON
Thu 07:36:37 PM 37.7833 -78.3667 130° Southeast 151 174 7,000  Level Potomac TRACON
Thu 07:37:37 PM 37.7667 -78.3333 122° Southeast 142 163 7,000  Level Potomac TRACON
Thu 07:38:37 PM 37.7500 -78.2833 113° Southeast 141 162 7,000  Level Potomac TRACON
Thu 07:39:37 PM 37.7333 -78.2500 122° Southeast 145 167 7,000  Level Potomac TRACON
Thu 07:40:37 PM 37.7167 -78.2000 113° Southeast 153 176 7,000  Level Potomac TRACON
Thu 07:41:37 PM 37.7000 -78.1667 122° Southeast 133 153 7,000  Level Potomac TRACON
Thu 07:42:37 PM 37.6667 -78.1167 130° Southeast 143 165 7,000  Level Potomac TRACON
Thu 07:43:37 PM 37.6500 -78.0833 122° Southeast 148 170 7,000  Level Potomac TRACON
Thu 07:44:37 PM 37.6333 -78.0333 113° Southeast 146 168 7,000  Level Potomac TRACON
Thu 07:45:37 PM 37.6167 -78.0000 122° Southeast 141 162 7,000  Level Potomac TRACON
Thu 07:46:37 PM 37.5833 -77.9500 130° Southeast 143 165 7,000  Level Potomac TRACON
Thu 07:47:37 PM 37.5667 -77.9167 122° Southeast 141 162 7,000  Level Potomac TRACON
Thu 07:48:37 PM 37.5500 -77.8667 113° Southeast 140 161 7,000  Level Potomac TRACON
Thu 07:49:37 PM 37.5333 -77.8333 122° Southeast 145 167 7,000  Level Potomac TRACON
Thu 07:50:37 PM 37.5000 -77.8000 142° Southeast 141 162 7,000  Level Potomac TRACON
Thu 07:51:37 PM 37.4833 -77.7500 113° Southeast 145 167 7,000  Level Potomac TRACON
Thu 07:52:37 PM 37.4500 -77.7167 142° Southeast 143 165 7,000  Level Potomac TRACON
Thu 07:53:37 PM 37.4333 -77.6833 122° Southeast 149 171 7,000  Level Potomac TRACON
Thu 07:54:31 PM 37.4167 -77.6333 113° Southeast 140 161 7,000  Level Potomac TRACON
Thu 07:55:31 PM 37.3833 -77.6000 142° Southeast 144 166 7,000  Level Potomac TRACON
Thu 07:56:32 PM 37.3667 -77.5667 122° Southeast 146 168 7,000  Level Potomac TRACON
Thu 07:57:32 PM 37.3333 -77.5167 130° Southeast 143 165 7,000  Level Potomac TRACON
Thu 07:58:32 PM 37.3167 -77.4833 122° Southeast 145 167 7,000  Level Potomac TRACON
Thu 07:59:32 PM 37.2833 -77.4500 141° Southeast 143 165 7,000  Level Potomac TRACON
Thu 08:00:19 PM 37.2686 -77.4186 121° Southeast 145 167 7,000  Level Washington Center
Thu 08:01:13 PM 37.2442 -77.3817 130° Southeast 147 169 7,000  Level Washington Center
Thu 08:02:15 PM 37.2197 -77.3472 132° Southeast 143 165 7,000  Level Washington Center
Thu 08:03:21 PM 37.1911 -77.2994 127° Southeast 145 167 7,000  Level Washington Center
Thu 08:04:28 PM 37.1667 -77.2600 128° Southeast 145 167 7,000  Level Washington Center
Thu 08:05:28 PM 37.1403 -77.2150 126° Southeast 143 165 7,000  Level Washington Center
Thu 08:06:29 PM 37.1158 -77.1781 130° Southeast 145 167 7,000  Level Washington Center
Thu 08:07:29 PM 37.0892 -77.1358 128° Southeast 145 167 7,000  Level Washington Center
Thu 08:08:30 PM 37.0667 -77.0989 127° Southeast 142 163 7,000 -50 Level Washington Center
Thu 08:09:30 PM 37.0422 -77.0594 128° Southeast 144 166 6,900 -198 Descending Washington Center
Thu 08:10:31 PM 37.0178 -77.0122 123° Southeast 152 175 6,600 -344 Descending Washington Center
Thu 08:11:32 PM 36.9953 -76.9675 122° Southeast 155 178 6,200 -344 Descending Washington Center
Thu 08:12:33 PM 36.9706 -76.9228 125° Southeast 153 176 5,900 -393 Descending Washington Center
Thu 08:13:34 PM 36.9483 -76.8758 121° Southeast 148 170 5,400 -446 Descending Washington Center
Thu 08:14:34 PM 36.9300 -76.8364 120° Southeast 136 157 5,000 -347 Descending Washington Center
Thu 08:15:35 PM 36.9072 -76.7972 126° Southeast 134 154 4,700 -336 Descending Washington Center
Thu 08:16:39 PM 36.8889 -76.7578 120° Southeast 131 151 4,300 -432 Descending Washington Center
Thu 08:17:40 PM 36.8664 -76.7186 126° Southeast 128 147 3,800 -393 Descending Washington Center
Thu 08:18:41 PM 36.8481 -76.6794 120° Southeast 127 146 3,500 -328 Descending Washington Center
Thu 08:19:48 PM 36.8275 -76.6428 125° Southeast 126 145 3,100 -281 Descending Washington Center
Thu 08:20:49 PM 36.8089 -76.6064 123° Southeast 116 133 2,900 -197 Descending Washington Center
Thu 08:21:50 PM 36.7906 -76.5697 122° Southeast 120 138 2,700 -261 Descending Washington Center
Thu 08:22:44 PM 36.7742 -76.5358 121° Southeast 121 139 2,400 -222 Descending Washington Center
Thu 08:23:38 PM 36.7575 -76.5069 126° Southeast 119 137 2,300 -52 Descending Washington Center
Thu 08:24:39 PM 36.7411 -76.4731 121° Southeast 117 135 2,300  Level Washington Center

Login

Don't have an account? Register now (free) for customized features, flight alerts, and more!